Time;durP1;ratioP1;P1;durP2;ratioP2;P2;SDS_P1;SDS_P2;PMS_P1;PMS_P2;Temp;Humidity;BMP_temperature;BMP_pressure;BME280_temperature;BME280_humidity;BME280_pressure;Samples;Min_cycle;Max_cycle;Signal;HPM_P1;HPM_P2
2022/05/31 00:00:27;;;;;;;1.80;1.10;;;8.60;99.90;;;;;;5088965;28;20483;-68
2022/05/31 00:02:55;;;;;;;1.67;1.05;;;8.50;99.90;;;;;;5071788;28;20036;-68
2022/05/31 00:05:21;;;;;;;2.83;1.20;;;8.40;99.90;;;;;;5055103;28;20037;-68
2022/05/31 00:07:47;;;;;;;1.55;0.98;;;8.40;99.90;;;;;;5071941;28;20041;-68
2022/05/31 00:10:15;;;;;;;4.03;1.33;;;8.60;99.90;;;;;;5071884;28;20040;-68
2022/05/31 00:12:42;;;;;;;1.48;0.82;;;9.00;99.90;;;;;;5072877;28;20040;-67
2022/05/31 00:15:10;;;;;;;3.22;1.48;;;8.60;99.90;;;;;;5071665;28;20051;-67
2022/05/31 00:17:35;;;;;;;1.65;1.20;;;8.30;99.90;;;;;;5071441;28;20051;-68
2022/05/31 00:20:04;;;;;;;1.27;0.77;;;8.40;99.90;;;;;;5071748;28;20111;-67
2022/05/31 00:22:33;;;;;;;3.00;1.70;;;8.30;99.90;;;;;;5071582;28;20365;-68
2022/05/31 00:24:59;;;;;;;1.50;1.20;;;8.70;99.90;;;;;;5105668;28;20041;-68
2022/05/31 00:27:25;;;;;;;2.47;1.52;;;8.70;99.90;;;;;;5071441;28;20094;-67
2022/05/31 00:29:51;;;;;;;1.67;0.98;;;8.80;99.90;;;;;;5071352;28;20043;-67
2022/05/31 00:32:22;;;;;;;2.47;1.42;;;9.20;99.90;;;;;;5071465;28;20036;-67
2022/05/31 00:34:50;;;;;;;2.13;1.30;;;8.60;99.90;;;;;;5071553;28;20041;-69
2022/05/31 00:37:16;;;;;;;3.13;1.40;;;8.70;99.90;;;;;;5071320;28;20083;-67
2022/05/31 00:39:42;;;;;;;1.83;1.00;;;8.70;99.90;;;;;;5071450;28;20041;-67
2022/05/31 00:42:15;;;;;;;2.42;1.38;;;8.40;99.90;;;;;;5054643;28;20041;-67
2022/05/31 00:44:41;;;;;;;1.67;1.10;;;8.70;99.90;;;;;;5055067;28;20040;-68
2022/05/31 00:47:06;;;;;;;2.00;1.13;;;8.80;99.90;;;;;;5055021;28;20399;-67
2022/05/31 00:49:44;;;;;;;2.03;1.30;;;8.70;99.90;;;;;;5071341;28;20052;-67
2022/05/31 00:52:36;;;;;;;1.95;1.40;;;8.50;99.90;;;;;;5071260;28;20089;-67
2022/05/31 00:55:08;;;;;;;2.13;1.10;;;8.50;99.90;;;;;;5069046;28;20090;-67
2022/05/31 00:57:36;;;;;;;1.55;1.25;;;8.60;99.90;;;;;;5054375;28;20048;-66
2022/05/31 01:00:10;;;;;;;2.28;1.17;;;9.10;99.90;;;;;;5071235;28;20051;-67
2022/05/31 01:02:37;;;;;;;2.63;1.63;;;8.60;99.90;;;;;;5071419;28;20484;-67
2022/05/31 01:05:05;;;;;;;1.45;1.10;;;8.70;99.90;;;;;;5104985;28;20507;-67
2022/05/31 01:07:31;;;;;;;2.92;1.23;;;8.60;99.90;;;;;;5071421;28;20044;-66
2022/05/31 01:09:57;;;;;;;1.67;1.10;;;9.00;99.90;;;;;;5071104;28;20044;-67
2022/05/31 01:12:24;;;;;;;1.58;1.15;;;9.00;99.90;;;;;;5071060;28;20400;-68
2022/05/31 01:14:50;;;;;;;1.40;0.95;;;9.10;99.90;;;;;;5071327;28;20427;-67
2022/05/31 01:17:22;;;;;;;4.03;1.63;;;8.60;99.90;;;;;;5054098;28;20052;-67
2022/05/31 01:20:00;;;;;;;2.03;1.33;;;8.70;99.90;;;;;;5071051;28;20110;-67
2022/05/31 01:22:29;;;;;;;1.38;1.08;;;8.90;99.90;;;;;;5071296;28;20072;-67
2022/05/31 01:25:18;;;;;;;2.67;1.10;;;9.20;99.90;;;;;;5070981;28;20045;-67
2022/05/31 01:28:19;;;;;;;1.98;1.35;;;8.80;99.90;;;;;;5051119;28;20080;-67
2022/05/31 01:31:00;;;;;;;2.28;1.50;;;8.80;99.90;;;;;;5050432;28;20444;-67
2022/05/31 01:33:39;;;;;;;2.17;1.60;;;8.70;99.90;;;;;;5071293;28;20040;-67
2022/05/31 01:36:12;;;;;;;3.78;1.38;;;8.80;99.90;;;;;;5070807;28;20040;-66
2022/05/31 01:38:48;;;;;;;2.55;1.25;;;9.30;99.90;;;;;;5054155;28;20509;-67
2022/05/31 01:41:23;;;;;;;1.20;1.10;;;9.00;99.90;;;;;;5073243;28;20032;-67
2022/05/31 01:43:53;;;;;;;1.88;1.10;;;9.10;99.90;;;;;;5074417;28;20037;-67
2022/05/31 01:46:29;;;;;;;1.58;1.20;;;9.40;99.90;;;;;;5074646;28;20131;-67
2022/05/31 01:48:56;;;;;;;2.58;1.58;;;8.70;99.90;;;;;;5075504;28;20036;-68
2022/05/31 01:51:22;;;;;;;1.38;1.02;;;9.00;99.90;;;;;;5074486;28;20137;-67
2022/05/31 01:53:49;;;;;;;1.95;1.35;;;8.80;99.90;;;;;;5057958;28;20538;-68
2022/05/31 01:56:14;;;;;;;3.28;1.70;;;9.20;99.90;;;;;;5074351;28;20117;-67
2022/05/31 01:58:47;;;;;;;2.67;1.50;;;9.50;99.90;;;;;;5074571;28;20075;-66
2022/05/31 02:01:13;;;;;;;2.00;1.40;;;9.50;99.90;;;;;;5074282;28;20360;-67
2022/05/31 02:03:41;;;;;;;1.63;1.20;;;8.80;99.90;;;;;;5074242;28;20044;-67
2022/05/31 02:06:33;;;;;;;1.88;1.20;;;8.80;99.90;;;;;;5075146;28;20115;-67
2022/05/31 02:08:59;;;;;;;2.13;1.30;;;9.60;99.90;;;;;;5073880;28;20373;-68
2022/05/31 02:11:26;;;;;;;1.52;1.33;;;9.00;99.90;;;;;;5073873;28;20110;-67
2022/05/31 02:13:52;;;;;;;2.95;1.40;;;9.10;99.90;;;;;;5073764;28;20037;-67
2022/05/31 02:16:18;;;;;;;2.08;1.25;;;9.20;99.90;;;;;;5073570;28;20041;-67
2022/05/31 02:21:35;;;;;;;3.80;1.75;;;9.00;99.90;;;;;;5074033;28;20526;-68
2022/05/31 02:24:13;;;;;;;1.73;1.40;;;8.80;99.90;;;;;;5074173;28;20048;-67
2022/05/31 02:26:41;;;;;;;2.55;1.60;;;8.90;99.90;;;;;;5073562;28;20044;-67
2022/05/31 02:29:09;;;;;;;2.28;1.73;;;9.40;99.90;;;;;;5056831;28;20040;-67
2022/05/31 02:31:35;;;;;;;3.22;1.48;;;9.20;99.90;;;;;;5057041;28;20055;-67
2022/05/31 02:34:01;;;;;;;2.13;1.55;;;8.70;99.90;;;;;;5056817;28;20040;-67
2022/05/31 02:36:27;;;;;;;2.60;1.60;;;9.00;99.90;;;;;;5056649;28;20377;-67
2022/05/31 02:38:55;;;;;;;2.88;1.80;;;8.90;99.90;;;;;;5073293;28;20043;-68
2022/05/31 02:41:21;;;;;;;2.70;1.98;;;9.30;99.90;;;;;;5073158;28;20115;-67
2022/05/31 02:43:47;;;;;;;2.40;1.77;;;9.50;99.90;;;;;;5073132;28;20075;-67
2022/05/31 02:46:13;;;;;;;2.13;1.40;;;9.30;99.90;;;;;;5056512;28;20076;-67
2022/05/31 02:48:39;;;;;;;2.53;1.80;;;9.10;99.90;;;;;;5073243;28;20101;-67
2022/05/31 02:51:04;;;;;;;1.60;1.30;;;9.20;99.90;;;;;;5073212;28;20387;-67
2022/05/31 02:53:30;;;;;;;1.23;1.13;;;9.00;99.90;;;;;;5073018;28;20127;-71
2022/05/31 02:55:57;;;;;;;2.83;1.48;;;9.30;99.90;;;;;;5073017;28;20377;-72
2022/05/31 02:58:26;;;;;;;3.22;1.40;;;9.10;99.90;;;;;;5072835;28;20075;-71
2022/05/31 03:00:53;;;;;;;2.65;1.75;;;9.20;99.90;;;;;;5073005;28;20049;-71
2022/05/31 03:03:19;;;;;;;4.45;1.90;;;9.10;99.90;;;;;;5056605;28;20048;-71
2022/05/31 03:05:45;;;;;;;3.42;1.60;;;9.60;99.90;;;;;;5072759;28;20098;-71
2022/05/31 03:08:12;;;;;;;3.72;2.30;;;9.80;99.90;;;;;;5072706;28;20076;-71
2022/05/31 03:10:44;;;;;;;2.05;1.38;;;9.10;99.90;;;;;;5072992;28;20048;-71
2022/05/31 03:13:12;;;;;;;3.75;1.80;;;9.20;99.90;;;;;;5072643;28;20044;-72
2022/05/31 03:15:38;;;;;;;3.72;2.30;;;9.00;99.90;;;;;;5072534;28;20045;-71
2022/05/31 03:18:10;;;;;;;2.67;1.73;;;9.20;99.90;;;;;;5039145;28;20052;-71
2022/05/31 03:20:53;;;;;;;2.40;1.90;;;8.90;99.90;;;;;;5072532;28;20063;-72
2022/05/31 03:23:30;;;;;;;3.05;1.88;;;8.90;99.90;;;;;;5072481;28;20040;-71
2022/05/31 03:25:58;;;;;;;2.15;1.42;;;8.80;99.90;;;;;;5072391;28;20043;-72
2022/05/31 03:28:26;;;;;;;2.17;1.55;;;9.30;99.90;;;;;;5055714;28;20041;-71
2022/05/31 03:30:52;;;;;;;4.25;2.35;;;9.00;99.90;;;;;;5072303;28;20044;-71
2022/05/31 03:33:18;;;;;;;3.40;1.80;;;9.20;99.90;;;;;;5072255;28;20051;-72
2022/05/31 03:35:44;;;;;;;3.22;1.85;;;9.20;99.90;;;;;;5072118;28;20044;-72
2022/05/31 03:38:10;;;;;;;2.25;1.45;;;9.00;99.90;;;;;;5072145;28;20037;-71
2022/05/31 03:43:20;;;;;;;2.55;1.50;;;9.10;99.90;;;;;;5072125;28;20047;-72
2022/05/31 03:45:46;;;;;;;3.13;2.10;;;9.20;99.90;;;;;;5038863;28;20483;-71
2022/05/31 03:48:12;;;;;;;2.28;1.75;;;9.30;99.90;;;;;;5072287;28;20055;-72
2022/05/31 03:50:39;;;;;;;2.28;1.60;;;9.30;99.90;;;;;;5055599;28;20043;-71
2022/05/31 03:53:13;;;;;;;7.25;1.73;;;9.20;99.90;;;;;;5071934;28;20127;-71
2022/05/31 03:55:41;;;;;;;2.25;1.40;;;9.20;99.90;;;;;;5071869;28;20044;-72
2022/05/31 03:58:08;;;;;;;3.05;1.85;;;9.20;99.90;;;;;;5055305;28;20076;-72
2022/05/31 04:00:34;;;;;;;3.30;1.40;;;9.00;99.90;;;;;;5071852;28;20028;-71
2022/05/31 04:03:00;;;;;;;2.38;1.77;;;9.20;99.90;;;;;;5071286;28;20037;-71
2022/05/31 04:05:26;;;;;;;1.98;1.42;;;9.10;99.90;;;;;;5071728;28;20094;-71
2022/05/31 04:07:53;;;;;;;1.63;1.17;;;8.80;99.90;;;;;;5071780;28;20041;-71
2022/05/31 04:10:19;;;;;;;2.28;1.77;;;9.30;99.90;;;;;;5054964;28;20048;-71
2022/05/31 04:12:45;;;;;;;2.20;1.50;;;9.10;99.90;;;;;;5071685;28;20050;-72
2022/05/31 04:15:10;;;;;;;2.70;1.65;;;9.70;99.90;;;;;;5055241;28;20072;-71
2022/05/31 04:17:36;;;;;;;3.53;1.40;;;9.10;99.90;;;;;;5105103;28;20044;-72
2022/05/31 04:20:04;;;;;;;2.90;1.75;;;9.40;99.90;;;;;;5071547;28;20080;-71
2022/05/31 04:22:29;;;;;;;2.42;1.60;;;9.00;99.90;;;;;;5071635;28;20094;-71
2022/05/31 04:25:00;;;;;;;1.88;1.40;;;9.40;99.90;;;;;;5071661;28;20037;-71
2022/05/31 04:27:26;;;;;;;;;;;9.60;99.90;;;;;;5072201;28;20076;-71
2022/05/31 04:29:52;;;;;;;1.33;1.17;;;9.60;99.90;;;;;;5072789;28;20382;-72
2022/05/31 04:32:18;;;;;;;3.78;1.92;;;9.50;99.90;;;;;;5071428;28;20446;-71
2022/05/31 04:34:43;;;;;;;2.55;1.70;;;9.50;99.90;;;;;;5071738;28;20426;-71
2022/05/31 04:37:10;;;;;;;4.28;2.10;;;9.60;99.90;;;;;;5054589;28;20044;-72
2022/05/31 04:39:36;;;;;;;2.92;1.75;;;9.60;99.90;;;;;;5071416;28;20454;-72
2022/05/31 04:42:02;;;;;;;1.80;1.33;;;9.30;99.90;;;;;;5054893;28;20037;-71
2022/05/31 04:44:27;;;;;;;2.13;1.50;;;9.40;99.90;;;;;;5071690;28;20131;-72
2022/05/31 04:46:53;;;;;;;10.38;1.70;;;9.40;99.90;;;;;;5071319;28;20128;-71
2022/05/31 04:49:20;;;;;;;3.63;2.20;;;9.50;99.90;;;;;;5071302;28;20055;-71
2022/05/31 04:51:46;;;;;;;2.60;1.70;;;9.40;99.90;;;;;;5071592;28;20131;-72
2022/05/31 04:54:12;;;;;;;2.80;1.70;;;9.60;99.90;;;;;;5071533;28;20090;-71
2022/05/31 04:56:38;;;;;;;6.10;1.70;;;9.40;99.90;;;;;;5071168;28;20032;-71
2022/05/31 04:59:03;;;;;;;3.47;1.90;;;9.40;99.90;;;;;;5071309;28;20067;-71
2022/05/31 05:01:29;;;;;;;2.08;1.75;;;9.40;99.90;;;;;;5071229;28;20041;-71
2022/05/31 05:03:56;;;;;;;2.70;1.90;;;9.30;99.90;;;;;;5071130;28;20032;-71
2022/05/31 05:06:22;;;;;;;2.20;1.73;;;9.40;99.90;;;;;;5054672;28;20037;-71
2022/05/31 05:08:49;;;;;;;2.13;1.55;;;9.30;99.90;;;;;;5071139;28;20041;-71
2022/05/31 05:11:20;;;;;;;2.90;1.88;;;9.80;99.90;;;;;;5071041;28;20044;-71
2022/05/31 05:13:45;;;;;;;2.03;1.50;;;10.00;99.90;;;;;;5071101;28;20086;-71
2022/05/31 05:16:13;;;;;;;6.25;2.60;;;9.50;99.90;;;;;;5073396;28;20045;-71
2022/05/31 05:18:40;;;;;;;4.45;2.38;;;9.60;99.90;;;;;;5058020;28;20063;-72
2022/05/31 05:21:09;;;;;;;3.20;1.67;;;9.60;99.90;;;;;;5074978;28;20036;-71
2022/05/31 05:23:35;;;;;;;3.17;1.90;;;9.60;99.90;;;;;;5074993;28;20488;-71
2022/05/31 05:26:01;;;;;;;2.70;1.77;;;9.60;99.90;;;;;;5074718;28;20040;-71
2022/05/31 05:31:33;;;;;;;3.65;2.15;;;9.70;99.90;;;;;;5074889;28;20139;-71
2022/05/31 05:34:00;;;;;;;2.63;2.03;;;;;;;;;;5074891;28;20139;-72
2022/05/31 05:36:26;;;;;;;4.53;1.83;;;9.90;99.90;;;;;;5074513;28;20442;-71
2022/05/31 05:38:52;;;;;;;3.65;2.08;;;10.00;99.90;;;;;;5074671;28;20396;-71
2022/05/31 05:41:20;;;;;;;2.97;1.92;;;10.40;99.90;;;;;;5074410;28;20056;-71
2022/05/31 05:43:47;;;;;;;3.72;2.08;;;;;;;;;;5074334;28;20079;-71
2022/05/31 05:46:14;;;;;;;3.25;2.08;;;;;;;;;;5074439;28;20044;-71
2022/05/31 05:48:40;;;;;;;3.58;2.20;;;;;;;;;;5074334;28;20058;-72
2022/05/31 05:51:23;;;;;;;3.05;2.20;;;;;;;;;;5074343;28;20051;-72
2022/05/31 05:53:50;;;;;;;3.55;2.08;;;;;;;;;;5074223;28;20041;-71
2022/05/31 05:56:17;;;;;;;3.35;2.47;;;;;;;;;;5074357;28;20499;-72
2022/05/31 05:58:43;;;;;;;3.83;2.10;;;;;;;;;;5074145;28;20037;-73
2022/05/31 06:01:30;;;;;;;3.53;2.05;;;10.50;99.90;;;;;;5057530;28;20036;-73
2022/05/31 06:04:11;;;;;;;4.03;2.03;;;10.60;99.90;;;;;;5074327;28;20495;-73
2022/05/31 06:06:39;;;;;;;2.65;1.95;;;10.60;99.90;;;;;;5057333;28;20412;-73
2022/05/31 06:09:08;;;;;;;3.75;2.30;;;10.50;99.90;;;;;;5073933;28;20041;-72
2022/05/31 06:12:01;;;;;;;2.80;1.98;;;11.00;99.90;;;;;;5074587;28;20045;-71
2022/05/31 06:14:31;;;;;;;3.70;2.22;;;;;;;;;;5073765;28;20087;-73
2022/05/31 06:17:03;;;;;;;3.60;2.28;;;10.70;99.90;;;;;;5073509;28;20048;-73
2022/05/31 06:19:33;;;;;;;4.05;2.47;;;11.10;99.90;;;;;;5073722;28;20052;-72
2022/05/31 06:22:00;;;;;;;4.10;2.00;;;11.30;99.90;;;;;;5073670;28;20044;-72
2022/05/31 06:24:31;;;;;;;4.30;2.50;;;10.90;99.90;;;;;;5056922;28;20040;-72
2022/05/31 06:26:56;;;;;;;5.43;2.90;;;11.30;99.90;;;;;;5073123;28;20126;-72
2022/05/31 06:29:22;;;;;;;3.58;2.17;;;11.10;99.90;;;;;;5073407;28;20499;-72
2022/05/31 06:31:48;;;;;;;2.33;1.90;;;;;;;;;;5073749;28;20044;-72
2022/05/31 06:34:16;;;;;;;4.18;2.25;;;;;;;;;;5056856;28;20086;-72
2022/05/31 06:36:42;;;;;;;3.03;1.98;;;;;;;;;;5073286;28;20044;-71
2022/05/31 06:39:08;;;;;;;2.45;1.95;;;;;;;;;;5057016;28;20135;-71
2022/05/31 06:41:35;;;;;;;2.83;1.95;;;11.30;99.90;;;;;;5073584;28;20070;-71
2022/05/31 06:44:01;;;;;;;3.47;2.40;;;11.40;99.90;;;;;;5056748;28;20036;-71
2022/05/31 06:46:27;;;;;;;5.47;2.17;;;11.40;99.90;;;;;;5056558;28;20102;-71
2022/05/31 06:48:53;;;;;;;2.83;1.95;;;11.70;99.90;;;;;;5073082;28;20070;-71
2022/05/31 06:56:55;;;;;;;4.80;2.25;;;11.70;99.90;;;;;;5058910;28;20127;-72
2022/05/31 06:59:21;;;;;;;2.58;1.90;;;12.10;99.90;;;;;;5073215;28;20436;-71
2022/05/31 07:01:48;;;;;;;3.30;2.47;;;12.00;99.90;;;;;;5072848;28;20068;-71
2022/05/31 07:04:16;;;;;;;5.05;2.00;;;12.10;99.90;;;;;;5073082;28;20052;-71
2022/05/31 07:06:41;;;;;;;3.08;2.20;;;12.30;99.90;;;;;;5073129;28;20051;-71
2022/05/31 07:09:07;;;;;;;5.40;2.17;;;12.30;99.90;;;;;;5072679;28;20044;-71
2022/05/31 07:11:33;;;;;;;3.15;2.30;;;12.50;99.90;;;;;;5072675;28;20408;-71
2022/05/31 07:14:00;;;;;;;4.53;2.53;;;12.50;99.90;;;;;;5072947;28;20032;-71
2022/05/31 07:16:26;;;;;;;2.67;2.00;;;12.80;99.90;;;;;;5072704;28;20080;-72
2022/05/31 07:18:52;;;;;;;3.00;1.90;;;12.80;99.90;;;;;;5072362;28;20500;-71
2022/05/31 07:21:18;;;;;;;2.63;2.20;;;12.90;99.90;;;;;;5072445;28;20052;-72
2022/05/31 07:23:44;;;;;;;2.83;1.90;;;12.90;99.90;;;;;;5072476;28;20048;-71
2022/05/31 07:26:12;;;;;;;3.80;1.77;;;13.20;99.90;;;;;;5039288;28;20044;-71
2022/05/31 07:28:39;;;;;;;4.15;2.45;;;13.30;99.90;;;;;;5072364;28;20044;-72
2022/05/31 07:31:05;;;;;;;3.53;1.75;;;13.40;99.90;;;;;;5055945;28;20506;-71
2022/05/31 07:33:31;;;;;;;2.92;1.70;;;13.70;99.90;;;;;;5055600;28;20067;-72
2022/05/31 07:35:57;;;;;;;3.10;1.92;;;13.80;99.90;;;;;;5072269;28;20048;-72
2022/05/31 07:38:23;;;;;;;3.75;1.73;;;13.80;99.90;;;;;;5038144;28;20048;-72
2022/05/31 07:40:50;;;;;;;4.90;1.90;;;13.80;99.90;;;;;;5072471;28;20499;-72
2022/05/31 07:43:16;;;;;;;2.22;1.50;;;13.90;99.90;;;;;;5072082;28;20036;-71
2022/05/31 07:45:42;;;;;;;3.08;1.75;;;14.00;99.90;;;;;;5072047;28;20044;-71
2022/05/31 07:48:08;;;;;;;2.13;1.33;;;14.20;99.90;;;;;;5072002;28;20050;-71
2022/05/31 07:50:35;;;;;;;2.70;1.60;;;14.20;99.90;;;;;;5071975;28;20041;-71
2022/05/31 07:53:01;;;;;;;2.42;1.52;;;14.50;99.90;;;;;;5072154;28;20040;-71
2022/05/31 07:55:28;;;;;;;2.47;1.08;;;14.50;99.90;;;;;;5072178;28;20085;-71
2022/05/31 08:00:39;;;;;;;7.63;1.77;;;14.70;99.90;;;;;;5071635;28;20052;-71
2022/05/31 08:03:06;;;;;;;1.50;1.30;;;;;;;;;;5055004;28;20403;-72
2022/05/31 08:05:32;;;;;;;3.20;1.65;;;15.00;99.90;;;;;;5071619;28;20115;-71
2022/05/31 08:07:58;;;;;;;4.97;1.38;;;;;;;;;;5071943;28;20055;-72
2022/05/31 08:10:24;;;;;;;5.60;1.65;;;14.90;99.90;;;;;;5055041;28;20037;-73
2022/05/31 08:12:50;;;;;;;2.20;1.70;;;14.40;99.90;;;;;;5071588;28;20067;-72
2022/05/31 08:15:16;;;;;;;1.75;1.17;;;;;;;;;;5055189;28;20040;-73
2022/05/31 08:17:43;;;;;;;3.00;1.40;;;15.50;99.90;;;;;;5071354;28;20056;-73
2022/05/31 08:20:09;;;;;;;2.95;1.60;;;15.60;99.90;;;;;;5055016;28;20044;-73
2022/05/31 08:22:35;;;;;;;2.72;1.52;;;15.70;99.90;;;;;;5071427;28;20040;-73
2022/05/31 08:25:02;;;;;;;2.83;1.35;;;15.70;99.90;;;;;;5054818;28;20411;-73
2022/05/31 08:27:28;;;;;;;1.95;1.50;;;15.70;99.90;;;;;;5054687;28;20048;-73
2022/05/31 08:29:54;;;;;;;1.63;1.08;;;15.70;99.90;;;;;;5054764;28;20055;-73
2022/05/31 08:32:20;;;;;;;1.70;1.20;;;15.90;99.90;;;;;;5071420;28;20088;-73
2022/05/31 08:34:47;;;;;;;1.85;1.30;;;15.80;99.90;;;;;;5071600;28;20036;-73
2022/05/31 08:37:13;;;;;;;3.10;1.33;;;15.90;99.90;;;;;;5071255;28;20049;-73
2022/05/31 08:39:39;;;;;;;1.52;1.00;;;15.90;99.90;;;;;;5071365;28;20456;-73
2022/05/31 08:42:08;;;;;;;1.75;1.20;;;16.00;99.90;;;;;;5054989;28;20083;-73
2022/05/31 08:44:55;;;;;;;4.47;1.45;;;16.00;99.90;;;;;;5071556;28;20090;-74
2022/05/31 08:47:26;;;;;;;3.67;1.27;;;16.10;99.90;;;;;;5071239;28;20131;-73
2022/05/31 08:53:17;;;;;;;1.23;1.13;;;16.10;99.90;;;;;;5099020;28;20470;-73
2022/05/31 08:58:58;;;;;;;1.75;1.02;;;16.30;99.90;;;;;;5075503;28;20056;-74
2022/05/31 09:01:27;;;;;;;1.50;0.80;;;16.30;99.90;;;;;;5075175;28;20044;-73
2022/05/31 09:03:59;;;;;;;2.05;1.00;;;16.20;99.90;;;;;;5075090;28;20400;-73
2022/05/31 09:06:39;;;;;;;1.48;1.00;;;16.30;99.90;;;;;;5075099;28;20190;-73
2022/05/31 09:09:23;;;;;;;1.65;1.10;;;16.40;99.90;;;;;;5075198;28;20396;-73
2022/05/31 09:12:33;;;;;;;2.85;1.08;;;16.50;99.90;;;;;;5074958;28;20080;-73
2022/05/31 09:15:09;;;;;;;1.67;0.90;;;16.70;99.90;;;;;;5020781;28;20041;-73
2022/05/31 09:17:45;;;;;;;1.77;1.10;;;;;;;;;;5071615;28;20123;-72
2022/05/31 09:20:14;;;;;;;2.30;0.80;;;;;;;;;;5074751;28;20033;-73
2022/05/31 09:22:42;;;;;;;1.67;0.93;;;;;;;;;;5058261;28;20038;-73
2022/05/31 09:25:09;;;;;;;0.95;0.57;;;;;;;;;;5058055;28;20040;-72
2022/05/31 09:27:40;;;;;;;1.75;1.08;;;;;;;;;;5058628;28;20438;-72
2022/05/31 09:30:25;;;;;;;4.43;1.08;;;17.60;99.90;;;;;;5074550;28;20094;-73
2022/05/31 09:33:04;;;;;;;1.45;1.10;;;17.60;99.90;;;;;;5074521;28;20052;-73
2022/05/31 09:36:05;;;;;;;1.98;1.20;;;17.60;99.90;;;;;;5074325;28;20036;-73
2022/05/31 09:38:43;;;;;;;2.78;1.38;;;17.30;99.90;;;;;;5074391;28;20044;-73
2022/05/31 09:41:19;;;;;;;5.57;1.27;;;17.00;99.90;;;;;;5074444;28;20045;-73
2022/05/31 09:43:56;;;;;;;2.70;1.10;;;16.70;99.90;;;;;;5074354;28;20415;-73
2022/05/31 09:46:43;;;;;;;2.42;1.25;;;16.50;99.90;;;;;;5074356;28;20072;-72
2022/05/31 09:49:31;;;;;;;3.40;1.05;;;16.30;99.90;;;;;;5074284;28;20123;-72
2022/05/31 09:51:57;;;;;;;1.85;1.23;;;16.20;99.90;;;;;;5074410;28;20090;-73
2022/05/31 09:57:24;;;;;;;1.92;1.10;;;16.20;99.90;;;;;;5073947;28;20181;-72
2022/05/31 09:59:51;;;;;;;2.03;1.17;;;16.10;99.90;;;;;;5074062;28;20083;-73
2022/05/31 10:02:17;;;;;;;2.47;1.40;;;16.20;99.90;;;;;;5073151;28;20270;-73
2022/05/31 10:04:43;;;;;;;5.53;1.20;;;16.20;99.90;;;;;;5057503;28;20488;-72
2022/05/31 10:07:09;;;;;;;2.03;1.23;;;16.20;99.90;;;;;;5073955;28;20044;-72
2022/05/31 10:09:41;;;;;;;1.20;0.90;;;16.10;99.90;;;;;;5074479;28;20087;-72
2022/05/31 10:12:11;;;;;;;2.10;1.00;;;16.20;99.90;;;;;;5073739;28;20036;-72
2022/05/31 10:14:39;;;;;;;1.52;0.98;;;16.20;99.90;;;;;;5073775;28;20045;-72
2022/05/31 10:17:41;;;;;;;1.48;0.82;;;16.20;99.90;;;;;;5073799;28;20064;-72
2022/05/31 10:20:12;;;;;;;1.40;0.90;;;16.20;99.90;;;;;;5057270;28;20048;-72
2022/05/31 10:22:59;;;;;;;1.55;0.90;;;16.30;99.90;;;;;;5057178;28;20503;-71
2022/05/31 10:25:26;;;;;;;1.52;1.13;;;16.50;99.90;;;;;;5056337;28;20048;-72
2022/05/31 10:28:09;;;;;;;2.33;0.88;;;16.70;99.90;;;;;;5073609;28;20036;-73
2022/05/31 10:30:36;;;;;;;1.58;0.95;;;16.80;99.90;;;;;;5073418;28;20040;-72
2022/05/31 10:33:16;;;;;;;1.30;0.88;;;16.90;99.90;;;;;;5056731;28;20056;-72
2022/05/31 10:35:43;;;;;;;2.45;1.20;;;17.00;99.90;;;;;;5056685;28;20408;-73
2022/05/31 10:38:18;;;;;;;2.45;0.90;;;17.00;99.90;;;;;;5073233;28;20127;-72
2022/05/31 10:40:54;;;;;;;5.55;0.93;;;17.20;99.90;;;;;;5073479;28;20476;-72
2022/05/31 10:43:43;;;;;;;2.78;1.00;;;17.20;99.90;;;;;;5073398;28;20036;-73
2022/05/31 10:46:11;;;;;;;2.22;1.23;;;17.40;99.90;;;;;;5067901;28;20056;-73
2022/05/31 10:48:47;;;;;;;2.75;0.82;;;17.50;99.90;;;;;;5073101;28;20051;-73
2022/05/31 10:51:40;;;;;;;1.33;0.80;;;17.60;99.90;;;;;;5073039;28;20044;-72
2022/05/31 10:54:19;;;;;;;2.05;1.10;;;17.70;99.90;;;;;;5073230;28;20051;-72
2022/05/31 10:56:53;;;;;;;1.42;0.82;;;17.80;99.90;;;;;;5056170;28;20104;-73
2022/05/31 10:59:53;;;;;;;1.35;0.73;;;17.90;99.90;;;;;;5056480;28;20073;-73
2022/05/31 11:02:30;;;;;;;0.95;0.85;;;17.80;99.90;;;;;;5089276;28;20154;-72
2022/05/31 11:05:15;;;;;;;2.58;1.20;;;17.80;99.90;;;;;;5056125;28;20036;-72
2022/05/31 11:11:28;;;;;;;3.20;1.20;;;17.80;99.90;;;;;;5073009;28;20048;-72
2022/05/31 11:13:59;;;;;;;1.38;0.98;;;18.00;99.90;;;;;;5072778;28;20459;-72
2022/05/31 11:17:00;;;;;;;1.20;0.90;;;18.10;99.90;;;;;;5056399;28;20541;-72
2022/05/31 11:20:10;;;;;;;1.48;1.00;;;18.20;99.80;;;;;;5072659;28;20506;-72
2022/05/31 11:23:11;;;;;;;;;;;18.50;99.60;;;;;;5018860;28;20111;-72
2022/05/31 11:26:21;;;;;;;2.67;1.23;;;18.60;97.80;;;;;;4992133;28;19964;-72
2022/05/31 11:29:09;;;;;;;3.13;0.75;;;18.90;98.70;;;;;;5041791;28;20040;-72
2022/05/31 11:31:50;;;;;;;1.92;1.13;;;18.90;97.90;;;;;;5072479;28;20505;-72
2022/05/31 11:34:37;;;;;;;1.33;0.82;;;18.70;95.50;;;;;;5072039;28;20174;-72
2022/05/31 11:37:35;;;;;;;1.95;1.13;;;18.60;95.50;;;;;;5072268;28;20033;-71
2022/05/31 11:40:16;;;;;;;1.30;0.68;;;18.50;96.60;;;;;;5055718;28;20456;-72
2022/05/31 11:42:54;;;;;;;0.98;0.80;;;18.70;97.60;;;;;;5072081;28;20040;-72
2022/05/31 11:45:36;;;;;;;1.20;0.82;;;18.50;93.80;;;;;;5055677;28;20113;-72
2022/05/31 11:48:10;;;;;;;1.98;1.10;;;18.30;89.80;;;;;;5071870;28;20071;-71
2022/05/31 11:50:48;;;;;;;2.20;1.10;;;18.20;92.50;;;;;;5071893;28;20041;-72
2022/05/31 11:53:26;;;;;;;1.25;0.60;;;18.20;94.80;;;;;;5071904;28;20049;-72
2022/05/31 11:56:00;;;;;;;2.80;0.95;;;18.10;96.00;;;;;;5072193;28;20414;-72
2022/05/31 11:58:41;;;;;;;1.95;1.17;;;18.00;96.40;;;;;;5071880;28;20040;-72
2022/05/31 12:01:13;;;;;;;;;;;17.80;95.70;;;;;;5072278;28;20094;-72
2022/05/31 12:03:39;;;;;;;3.05;1.10;;;17.70;95.20;;;;;;5055226;28;19916;-72
2022/05/31 12:06:22;;;;;;;1.67;0.85;;;17.70;96.10;;;;;;5071803;28;20040;-73
2022/05/31 12:08:58;;;;;;;1.48;0.80;;;17.70;96.50;;;;;;5072112;28;20028;-72
2022/05/31 12:11:37;;;;;;;2.40;1.35;;;17.70;97.10;;;;;;5071787;28;20051;-72
2022/05/31 12:14:08;;;;;;;1.50;1.00;;;17.70;96.90;;;;;;5071744;28;20044;-72
2022/05/31 12:16:34;;;;;;;1.05;0.70;;;17.70;96.00;;;;;;5054823;28;20044;-72
2022/05/31 12:19:20;;;;;;;2.38;0.90;;;17.70;96.30;;;;;;5071552;28;20059;-72
2022/05/31 12:22:00;;;;;;;1.40;1.08;;;17.80;98.10;;;;;;5071644;28;20044;-72
2022/05/31 12:24:33;;;;;;;1.30;1.10;;;17.90;97.50;;;;;;5054645;28;20046;-73
2022/05/31 12:27:13;;;;;;;3.33;1.00;;;18.10;97.70;;;;;;5054898;28;20423;-71
2022/05/31 12:29:50;;;;;;;2.33;0.98;;;18.20;98.30;;;;;;5071589;28;20136;-71
2022/05/31 12:32:30;;;;;;;1.25;0.77;;;18.30;97.30;;;;;;5071425;28;20044;-71
2022/05/31 12:34:58;;;;;;;3.80;1.20;;;18.30;97.00;;;;;;5071463;28;20044;-72
2022/05/31 12:37:25;;;;;;;3.10;1.10;;;18.30;95.40;;;;;;5054674;28;20044;-73
2022/05/31 12:40:19;;;;;;;2.53;1.27;;;18.10;95.50;;;;;;5055080;28;20098;-73
2022/05/31 12:42:48;;;;;;;1.45;1.00;;;17.90;95.60;;;;;;5071687;28;20028;-72
2022/05/31 12:45:26;;;;;;;1.45;1.00;;;17.90;96.70;;;;;;5054775;28;20072;-72
2022/05/31 12:47:55;;;;;;;1.95;1.10;;;17.70;95.20;;;;;;5071727;28;20044;-72
2022/05/31 12:50:46;;;;;;;1.52;1.02;;;17.80;95.70;;;;;;5071628;28;20047;-73
2022/05/31 12:53:21;;;;;;;;;;;17.60;96.10;;;;;;5072010;28;20048;-71
2022/05/31 12:55:57;;;;;;;2.13;1.08;;;17.70;96.20;;;;;;5054855;28;20375;-72
2022/05/31 12:58:36;;;;;;;2.65;1.15;;;17.70;95.70;;;;;;5105058;28;20056;-72
2022/05/31 13:01:28;;;;;;;1.50;1.20;;;17.70;96.00;;;;;;5054493;28;20070;-74
2022/05/31 13:04:10;;;;;;;1.38;1.02;;;17.60;96.30;;;;;;5069113;28;20052;-74
2022/05/31 13:06:57;;;;;;;1.50;1.05;;;17.60;96.60;;;;;;5071316;28;20051;-73
2022/05/31 13:09:23;;;;;;;1.83;1.33;;;17.60;95.70;;;;;;5071282;28;20123;-73
2022/05/31 13:20:56;;;;;;;4.40;1.38;;;17.10;97.30;;;;;;5071233;28;20044;-74
2022/05/31 13:23:26;;;;;;;2.03;1.45;;;17.00;96.70;;;;;;5071291;28;20716;-73
2022/05/31 13:26:05;;;;;;;4.40;1.37;;;16.90;95.40;;;;;;5071160;28;20040;-73
2022/05/31 13:28:39;;;;;;;3.08;1.42;;;16.80;96.50;;;;;;5071034;28;20185;-73
2022/05/31 13:31:13;;;;;;;2.58;1.30;;;16.70;96.40;;;;;;5071190;28;20051;-73
2022/05/31 13:33:39;;;;;;;1.25;0.90;;;16.70;98.10;;;;;;5071063;28;20040;-73
2022/05/31 13:36:13;;;;;;;4.07;1.55;;;17.00;98.90;;;;;;5071617;28;20119;-73
2022/05/31 13:38:42;;;;;;;1.58;1.13;;;16.60;97.50;;;;;;5074585;28;20123;-73
2022/05/31 13:41:10;;;;;;;2.35;1.38;;;;;;;;;;5074765;28;20480;-73
2022/05/31 13:43:40;;;;;;;3.08;1.50;;;16.60;99.90;;;;;;5074838;28;20041;-73
2022/05/31 13:46:36;;;;;;;2.65;1.75;;;16.40;96.80;;;;;;5074826;28;20048;-74
2022/05/31 13:49:03;;;;;;;3.75;1.48;;;16.40;96.30;;;;;;5074633;28;20407;-73
2022/05/31 13:51:31;;;;;;;2.63;1.27;;;16.30;96.40;;;;;;5074647;28;20044;-73
2022/05/31 13:54:16;;;;;;;2.30;1.58;;;16.30;96.90;;;;;;5057950;28;20521;-71
2022/05/31 13:56:46;;;;;;;2.72;1.73;;;16.30;96.90;;;;;;5074051;28;20047;-72
2022/05/31 13:59:12;;;;;;;6.63;1.60;;;16.30;97.50;;;;;;5074087;28;20075;-73
2022/05/31 14:01:46;;;;;;;5.47;1.63;;;16.20;98.50;;;;;;5057540;28;20047;-73